Bushes, Louisiana
Current Conditions -  °F | °C
As of 7:53 PM on Friday 28 Nov 2014 (Local Time) from KMLU Reporting Station
Clear Clear  
Wind Chill: 50°   Ceiling: Unl
Heat Index: 50°   Visibility: 10mi
Dew Point: 37°   Wind: 7mph
Humidity: 61%   Direction: 170°S
Pressure: 30.18"   Gusts: NA
Location:  32.1434°N, 91.7026°W
Report Text: KMLU 290153Z 17006KT 10SM CLR 10/03 A3018 RMK AO2 SLP220 T01000028
Loading
Personal Weather Stations






























Interactive Weather Map New forecast layout! Learn more

10-Day Weather Forecast

Advertisements
Track Severe Weather on mobile